Time;durP1;ratioP1;P1;durP2;ratioP2;P2;SDS_P1;SDS_P2;PMS_P1;PMS_P2;Temp;Humidity;BMP_temperature;BMP_pressure;BME280_temperature;BME280_humidity;BME280_pressure;Samples;Min_cycle;Max_cycle;Signal;HPM_P1;HPM_P2
2023/08/06 00:01:02;;;;;;;4.43;4.07;;;;;;;;;;5065095;28;20208;-64
2023/08/06 00:03:29;;;;;;;4.50;4.20;;;;;;;;;;5065281;28;20543;-64
2023/08/06 00:05:55;;;;;;;6.78;4.70;;;;;;;;;;5065273;28;20419;-64
2023/08/06 00:08:21;;;;;;;4.32;4.03;;;;;;;;;;5065290;28;20201;-64
2023/08/06 00:10:48;;;;;;;5.03;4.72;;;;;;;;;;5065133;28;20500;-64
2023/08/06 00:13:15;;;;;;;4.70;4.40;;;;;;;;;;5065058;28;20509;-64
2023/08/06 00:15:42;;;;;;;4.60;4.30;;;;;;;;;;5065196;28;20428;-64
2023/08/06 00:18:08;;;;;;;4.68;4.38;;;;;;;;;;5065120;28;20203;-64
2023/08/06 00:20:34;;;;;;;4.93;4.60;;;;;;;;;;5065258;28;20198;-64
2023/08/06 00:23:00;;;;;;;5.05;4.50;;;;;;;;;;5064813;28;20272;-64
2023/08/06 00:25:27;;;;;;;4.90;4.47;;;;;;;;;;5064689;28;20193;-64
2023/08/06 00:27:53;;;;;;;5.15;4.75;;;;;;;;;;5064600;28;20544;-64
2023/08/06 00:30:21;;;;;;;5.43;4.78;;;;;;;;;;5065109;28;20227;-64
2023/08/06 00:32:47;;;;;;;5.10;4.80;;;;;;;;;;5064840;28;20327;-64
2023/08/06 00:35:14;;;;;;;5.28;4.55;;;;;;;;;;5064796;28;20213;-64
2023/08/06 00:37:40;;;;;;;5.03;4.72;;;;;;;;;;5065234;28;20197;-64
2023/08/06 00:40:07;;;;;;;5.32;4.93;;;;;;;;;;5064580;28;20216;-64
2023/08/06 00:42:34;;;;;;;5.43;5.03;;;;;;;;;;5064332;28;20483;-64
2023/08/06 00:45:00;;;;;;;5.13;4.75;;;;;;;;;;5064514;28;20277;-64
2023/08/06 00:47:28;;;;;;;4.97;4.68;;;;;;;;;;5064490;28;20201;-64
2023/08/06 00:49:54;;;;;;;6.00;4.35;;;;;;;;;;5064274;28;20216;-64
2023/08/06 00:52:21;;;;;;;4.85;4.45;;;;;;;;;;5064541;28;20523;-64
2023/08/06 00:54:47;;;;;;;5.00;4.60;;;;;;;;;;5064036;28;20220;-64
2023/08/06 00:57:13;;;;;;;4.88;4.47;;;;;;;;;;5064332;28;20404;-64
2023/08/06 00:59:40;;;;;;;5.35;4.95;;;;;;;;;;5064458;28;20197;-64
2023/08/06 01:02:06;;;;;;;5.53;5.10;;;;;;;;;;5064274;28;20523;-64
2023/08/06 01:04:34;;;;;;;6.28;5.60;;;;;;;;;;5064056;28;20201;-64
2023/08/06 01:07:04;;;;;;;6.10;5.60;;;;;;;;;;5064097;28;20201;-64
2023/08/06 01:09:33;;;;;;;6.15;5.50;;;;;;;;;;5064090;28;20197;-64
2023/08/06 01:12:05;;;;;;;6.47;5.13;;;;;;;;;;5063750;28;20215;-64
2023/08/06 01:14:34;;;;;;;5.70;5.30;;;;;;;;;;5064025;28;20217;-64
2023/08/06 01:17:02;;;;;;;6.38;5.10;;;;;;;;;;5064001;28;20208;-64
2023/08/06 01:19:28;;;;;;;5.78;5.38;;;;;;;;;;5064020;28;20205;-62
2023/08/06 01:21:56;;;;;;;5.57;5.15;;;;;;;;;;5063797;28;20201;-64
2023/08/06 01:24:22;;;;;;;5.50;5.10;;;;;;;;;;5063459;28;20193;-62
2023/08/06 01:26:52;;;;;;;6.45;5.28;;;;;;;;;;5063780;28;20207;-64
2023/08/06 01:29:20;;;;;;;6.25;5.75;;;;;;;;;;5063881;28;20204;-64
2023/08/06 01:31:47;;;;;;;6.50;6.00;;;;;;;;;;5063721;28;20393;-64
2023/08/06 01:34:14;;;;;;;5.95;5.45;;;;;;;;;;5063021;28;20407;-64
2023/08/06 01:36:41;;;;;;;7.75;6.65;;;;;;;;;;5063919;28;20207;-64
2023/08/06 01:39:09;;;;;;;8.20;5.60;;;;;;;;;;5063490;28;20201;-64
2023/08/06 01:41:35;;;;;;;10.45;5.70;;;;;;;;;;5063465;28;20197;-64
2023/08/06 01:44:01;;;;;;;6.47;5.60;;;;;;;;;;5063130;28;20207;-64
2023/08/06 01:46:28;;;;;;;6.57;6.07;;;;;;;;;;5063331;28;20197;-64
2023/08/06 01:48:54;;;;;;;6.38;5.80;;;;;;;;;;5063566;28;20215;-64
2023/08/06 01:51:20;;;;;;;6.47;5.50;;;;;;;;;;5063686;28;20197;-64
2023/08/06 01:53:46;;;;;;;6.50;5.72;;;;;;;;;;5062787;28;20568;-64
2023/08/06 01:56:14;;;;;;;7.13;6.38;;;;;;;;;;5063368;28;20205;-64
2023/08/06 01:58:40;;;;;;;6.43;5.82;;;;;;;;;;5063388;28;20203;-64
2023/08/06 02:01:07;;;;;;;6.60;6.03;;;;;;;;;;5063230;28;20207;-64
2023/08/06 02:03:33;;;;;;;6.25;5.60;;;;;;;;;;5063240;28;20197;-64
2023/08/06 02:05:59;;;;;;;5.78;5.38;;;;;;;;;;5063122;28;20197;-64
2023/08/06 02:08:25;;;;;;;5.97;5.45;;;;;;;;;;5063281;28;20219;-64
2023/08/06 02:10:52;;;;;;;4.97;4.57;;;;;;;;;;5063067;28;20277;-64
2023/08/06 02:13:19;;;;;;;4.45;4.10;;;;;;;;;;5063066;28;20500;-64
2023/08/06 02:15:47;;;;;;;4.35;4.15;;;;;;;;;;5062702;28;20544;-64
2023/08/06 02:18:14;;;;;;;4.20;3.53;;;;;;;;;;5063001;28;20197;-64
2023/08/06 02:20:40;;;;;;;3.38;3.08;;;;;;;;;;5063079;28;20451;-64
2023/08/06 02:23:07;;;;;;;3.28;3.08;;;;;;;;;;5062915;28;20201;-64
2023/08/06 02:25:33;;;;;;;3.13;2.92;;;;;;;;;;5062814;28;20458;-64
2023/08/06 02:27:59;;;;;;;2.65;2.45;;;;;;;;;;5062733;28;20221;-64
2023/08/06 02:30:27;;;;;;;3.47;2.67;;;;;;;;;;5062705;28;20197;-64
2023/08/06 02:32:53;;;;;;;2.92;2.70;;;;;;;;;;5062658;28;20201;-64
2023/08/06 02:35:19;;;;;;;2.25;2.15;;;;;;;;;;5062365;28;20217;-64
2023/08/06 02:37:46;;;;;;;2.35;2.25;;;;;;;;;;5062835;28;20201;-64
2023/08/06 02:40:12;;;;;;;2.08;2.03;;;;;;;;;;5062856;28;20511;-64
2023/08/06 02:42:38;;;;;;;2.38;1.90;;;;;;;;;;5062569;28;20197;-64
2023/08/06 02:45:05;;;;;;;2.47;2.28;;;;;;;;;;5062275;28;20205;-64
2023/08/06 02:47:33;;;;;;;3.03;2.15;;;;;;;;;;5062535;28;20201;-63
2023/08/06 02:49:59;;;;;;;2.38;2.22;;;;;;;;;;5062578;28;20209;-64
2023/08/06 02:52:25;;;;;;;2.00;1.95;;;;;;;;;;5062573;28;20204;-64
2023/08/06 02:54:51;;;;;;;4.03;2.67;;;;;;;;;;5062105;28;20539;-64
2023/08/06 02:57:18;;;;;;;2.70;2.50;;;;;;;;;;5062240;28;20197;-64
2023/08/06 02:59:44;;;;;;;2.60;2.40;;;;;;;;;;5062525;28;20201;-64
2023/08/06 03:02:10;;;;;;;3.08;2.78;;;;;;;;;;5062102;28;20207;-64
2023/08/06 03:04:38;;;;;;;3.00;2.80;;;;;;;;;;5061402;28;20208;-64
2023/08/06 03:07:04;;;;;;;3.13;2.90;;;;;;;;;;5062532;28;20485;-64
2023/08/06 03:09:30;;;;;;;2.95;2.75;;;;;;;;;;5062128;28;20527;-64
2023/08/06 03:11:57;;;;;;;3.80;2.90;;;;;;;;;;5061847;28;20404;-64
2023/08/06 03:14:23;;;;;;;3.00;2.85;;;;;;;;;;5061916;28;20197;-64
2023/08/06 03:16:49;;;;;;;3.55;3.15;;;;;;;;;;5062050;28;20201;-64
2023/08/06 03:19:15;;;;;;;4.05;2.90;;;;;;;;;;5062056;28;20401;-64
2023/08/06 03:21:43;;;;;;;3.65;3.45;;;;;;;;;;5062077;28;20215;-64
2023/08/06 03:24:09;;;;;;;3.35;3.15;;;;;;;;;;5061765;28;20200;-64
2023/08/06 03:26:36;;;;;;;3.40;3.30;;;;;;;;;;5061921;28;20200;-64
2023/08/06 03:29:02;;;;;;;3.33;3.13;;;;;;;;;;5061984;28;20548;-64
2023/08/06 03:31:28;;;;;;;3.25;2.95;;;;;;;;;;5062096;28;20197;-64
2023/08/06 03:33:54;;;;;;;3.10;2.97;;;;;;;;;;5061662;28;20207;-64
2023/08/06 03:36:21;;;;;;;3.40;3.10;;;;;;;;;;5053626;28;20217;-64
2023/08/06 03:38:49;;;;;;;3.83;3.55;;;;;;;;;;5061931;28;20201;-64
2023/08/06 03:41:15;;;;;;;4.95;3.13;;;;;;;;;;5061655;28;20279;-64
2023/08/06 03:43:41;;;;;;;3.33;3.03;;;;;;;;;;5061641;28;20207;-64
2023/08/06 03:46:08;;;;;;;2.95;2.80;;;;;;;;;;5062021;28;20528;-64
2023/08/06 03:48:34;;;;;;;3.88;3.05;;;;;;;;;;5061704;28;20209;-64
2023/08/06 03:51:02;;;;;;;3.08;2.97;;;;;;;;;;5061747;28;20217;-64
2023/08/06 03:53:28;;;;;;;3.60;2.70;;;;;;;;;;5061686;28;20235;-64
2023/08/06 03:55:59;;;;;;;3.17;2.55;;;;;;;;;;5061487;28;20232;-64
2023/08/06 03:58:25;;;;;;;3.42;2.53;;;;;;;;;;5061653;28;20205;-64
2023/08/06 04:00:58;;;;;;;2.47;1.98;;;;;;;;;;5061712;28;20223;-64
2023/08/06 04:03:24;;;;;;;2.30;2.20;;;;;;;;;;5053731;28;20204;-64
2023/08/06 04:05:50;;;;;;;2.40;2.30;;;;;;;;;;5061479;28;20197;-64
2023/08/06 04:08:16;;;;;;;2.45;2.25;;;;;;;;;;5061289;28;20201;-64
2023/08/06 04:10:43;;;;;;;2.42;2.33;;;;;;;;;;5061504;28;20202;-64
2023/08/06 04:13:10;;;;;;;2.92;2.22;;;;;;;;;;5061788;28;20207;-64
2023/08/06 04:15:36;;;;;;;2.40;2.22;;;;;;;;;;5061799;28;20221;-66
2023/08/06 04:18:03;;;;;;;2.20;2.00;;;;;;;;;;5065315;28;20201;-66
2023/08/06 04:20:29;;;;;;;2.67;2.10;;;;;;;;;;5065180;28;20208;-66
2023/08/06 04:22:55;;;;;;;5.45;2.40;;;;;;;;;;5065062;28;20201;-66
2023/08/06 04:25:23;;;;;;;2.30;2.10;;;;;;;;;;5065133;28;20399;-66
2023/08/06 04:27:49;;;;;;;4.72;2.22;;;;;;;;;;5065182;28;20560;-66
2023/08/06 04:30:17;;;;;;;5.03;2.17;;;;;;;;;;5065134;28;20201;-65
2023/08/06 04:32:43;;;;;;;2.28;2.08;;;;;;;;;;5065022;28;20205;-65
2023/08/06 04:35:09;;;;;;;2.20;2.03;;;;;;;;;;5064618;28;20252;-65
2023/08/06 04:37:36;;;;;;;1.80;1.70;;;;;;;;;;5064909;28;20223;-65
2023/08/06 04:40:02;;;;;;;1.80;1.70;;;;;;;;;;5065183;28;20212;-66
2023/08/06 04:42:28;;;;;;;2.13;2.03;;;;;;;;;;5065060;28;20215;-66
2023/08/06 04:44:54;;;;;;;2.10;2.00;;;;;;;;;;5064687;28;20201;-66
2023/08/06 04:47:22;;;;;;;2.08;1.98;;;;;;;;;;5064595;28;20201;-66
2023/08/06 04:49:48;;;;;;;3.42;1.58;;;;;;;;;;5065106;28;20201;-66
2023/08/06 04:52:14;;;;;;;2.03;1.90;;;;;;;;;;5064625;28;20224;-66
2023/08/06 04:54:41;;;;;;;3.88;2.10;;;;;;;;;;5064593;28;20209;-66
2023/08/06 04:57:07;;;;;;;1.98;1.80;;;;;;;;;;5064535;28;20228;-66
2023/08/06 04:59:33;;;;;;;1.52;1.40;;;;;;;;;;5064558;28;20197;-66
2023/08/06 05:02:00;;;;;;;4.15;1.60;;;;;;;;;;5064468;28;20200;-66
2023/08/06 05:04:27;;;;;;;2.75;1.40;;;;;;;;;;5064144;28;20203;-66
2023/08/06 05:06:54;;;;;;;0.98;0.93;;;;;;;;;;5064376;28;20208;-66
2023/08/06 05:09:20;;;;;;;1.02;1.02;;;;;;;;;;5064261;28;20205;-66
2023/08/06 05:11:47;;;;;;;1.45;1.35;;;;;;;;;;5064457;28;20382;-66
2023/08/06 05:14:13;;;;;;;2.88;1.02;;;;;;;;;;5064099;28;20528;-66
2023/08/06 05:16:39;;;;;;;1.25;1.13;;;;;;;;;;5064157;28;20221;-66
2023/08/06 05:19:06;;;;;;;1.67;1.00;;;;;;;;;;5064005;28;20209;-66
2023/08/06 05:21:33;;;;;;;2.15;1.00;;;;;;;;;;5064292;28;20207;-66
2023/08/06 05:23:59;;;;;;;3.55;0.90;;;;;;;;;;5063837;28;20215;-66
2023/08/06 05:26:26;;;;;;;2.75;1.00;;;;;;;;;;5064037;28;20470;-66
2023/08/06 05:28:52;;;;;;;1.10;0.95;;;;;;;;;;5063104;28;20424;-66
2023/08/06 05:31:18;;;;;;;1.90;0.80;;;;;;;;;;5063884;28;20201;-66
2023/08/06 05:33:45;;;;;;;1.10;0.60;;;;;;;;;;5063107;28;20211;-66
2023/08/06 05:36:11;;;;;;;0.93;0.70;;;;;;;;;;5062535;28;20548;-66
2023/08/06 05:38:38;;;;;;;1.90;0.95;;;;;;;;;;5063028;28;20350;-66
2023/08/06 05:41:05;;;;;;;0.70;0.70;;;;;;;;;;5062802;28;20209;-66
2023/08/06 05:43:31;;;;;;;2.40;0.55;;;;;;;;;;5062366;28;20536;-66
2023/08/06 05:45:57;;;;;;;2.33;0.70;;;;;;;;;;5062533;28;20209;-66
2023/08/06 05:48:24;;;;;;;4.22;0.80;;;;;;;;;;5062606;28;20213;-66
2023/08/06 05:50:51;;;;;;;0.57;0.57;;;;;;;;;;5062805;28;20201;-66
2023/08/06 05:53:17;;;;;;;1.17;0.70;;;;;;;;;;5062334;28;20201;-66
2023/08/06 05:55:45;;;;;;;1.63;0.70;;;;;;;;;;5063044;28;20227;-66
2023/08/06 05:58:12;;;;;;;1.08;0.80;;;;;;;;;;5062684;28;20200;-66
2023/08/06 06:00:38;;;;;;;2.78;0.80;;;;;;;;;;5062560;28;20205;-66
2023/08/06 06:03:04;;;;;;;1.33;0.68;;;;;;;;;;5062730;28;20209;-66
2023/08/06 06:05:30;;;;;;;2.28;0.60;;;;;;;;;;5062711;28;20522;-66
2023/08/06 06:07:57;;;;;;;1.10;0.60;;;;;;;;;;5063602;28;20202;-66
2023/08/06 06:10:23;;;;;;;0.77;0.70;;;;;;;;;;5063183;28;20209;-66
2023/08/06 06:12:51;;;;;;;3.42;0.80;;;;;;;;;;5063131;28;20201;-66
2023/08/06 06:15:17;;;;;;;0.60;0.60;;;;;;;;;;5062573;28;20413;-66
2023/08/06 06:17:43;;;;;;;6.00;0.77;;;;;;;;;;5063200;28;20209;-66
2023/08/06 06:20:10;;;;;;;1.30;0.60;;;;;;;;;;5063039;28;20201;-66
2023/08/06 06:22:36;;;;;;;1.35;0.77;;;;;;;;;;5062903;28;20204;-66
2023/08/06 06:25:02;;;;;;;1.50;0.70;;;;;;;;;;5062536;28;20201;-66
2023/08/06 06:27:28;;;;;;;1.17;0.60;;;;;;;;;;5062606;28;20213;-66
2023/08/06 06:29:56;;;;;;;1.48;0.70;;;;;;;;;;5062714;28;20501;-66
2023/08/06 06:32:22;;;;;;;4.88;0.82;;;;;;;;;;5062818;28;20201;-66
2023/08/06 06:34:49;;;;;;;2.55;0.80;;;;;;;;;;5062786;28;20543;-65
2023/08/06 06:37:15;;;;;;;1.65;0.57;;;;;;;;;;5062944;28;20528;-65
2023/08/06 06:39:41;;;;;;;0.47;0.47;;;;;;;;;;5062975;28;20221;-65
2023/08/06 06:42:07;;;;;;;1.83;0.63;;;;;;;;;;5062564;28;20205;-66
2023/08/06 06:44:34;;;;;;;2.08;0.70;;;;;;;;;;5062542;28;20211;-66
2023/08/06 06:47:01;;;;;;;0.65;0.43;;;;;;;;;;5062712;28;20201;-66
2023/08/06 06:49:28;;;;;;;0.93;0.50;;;;;;;;;;5062875;28;20497;-66
2023/08/06 06:51:54;;;;;;;1.92;0.35;;;;;;;;;;5062619;28;20201;-66
2023/08/06 06:54:20;;;;;;;1.83;0.50;;;;;;;;;;5062497;28;20207;-66
2023/08/06 06:56:46;;;;;;;1.23;0.60;;;;;;;;;;5062444;28;20228;-66
2023/08/06 06:59:13;;;;;;;2.03;0.55;;;;;;;;;;5062503;28;20207;-66
2023/08/06 07:01:39;;;;;;;1.30;0.50;;;;;;;;;;5062480;28;20504;-66
2023/08/06 07:04:06;;;;;;;0.47;0.47;;;;;;;;;;5062328;28;20200;-66
2023/08/06 07:06:33;;;;;;;1.60;1.00;;;;;;;;;;5046013;28;20200;-66
2023/08/06 07:08:59;;;;;;;0.70;0.70;;;;;;;;;;5062310;28;20219;-66
2023/08/06 07:11:25;;;;;;;4.53;0.82;;;;;;;;;;5062160;28;20222;-66
2023/08/06 07:13:56;;;;;;;0.65;0.50;;;;;;;;;;5062390;28;20205;-66
2023/08/06 07:16:23;;;;;;;0.47;0.47;;;;;;;;;;5062405;28;20397;-66
2023/08/06 07:18:49;;;;;;;1.40;0.60;;;;;;;;;;5062467;28;20223;-66
2023/08/06 07:21:16;;;;;;;0.82;0.50;;;;;;;;;;5062160;28;20201;-66
2023/08/06 07:23:43;;;;;;;0.50;0.40;;;;;;;;;;5062106;28;20210;-66
2023/08/06 07:26:09;;;;;;;0.30;0.30;;;;;;;;;;5061855;28;20205;-66
2023/08/06 07:28:35;;;;;;;0.90;0.30;;;;;;;;;;5061974;28;20213;-66
2023/08/06 07:31:03;;;;;;;0.22;0.20;;;;;;;;;;5062155;28;20211;-66
2023/08/06 07:33:29;;;;;;;0.85;0.30;;;;;;;;;;5062003;28;20245;-66
2023/08/06 07:35:56;;;;;;;1.60;0.35;;;;;;;;;;5061885;28;20580;-65
2023/08/06 07:38:23;;;;;;;0.98;0.47;;;;;;;;;;5061892;28;20201;-65
2023/08/06 07:40:49;;;;;;;0.50;0.30;;;;;;;;;;5062055;28;20209;-65
2023/08/06 07:43:16;;;;;;;0.88;0.40;;;;;;;;;;5062117;28;20201;-65
2023/08/06 07:45:42;;;;;;;0.30;0.30;;;;;;;;;;5062226;28;20387;-65
2023/08/06 07:48:08;;;;;;;0.20;0.20;;;;;;;;;;5061985;28;20205;-65
2023/08/06 07:50:35;;;;;;;0.20;0.20;;;;;;;;;;5062124;28;20253;-65
2023/08/06 07:53:01;;;;;;;0.50;0.20;;;;;;;;;;5066091;28;20201;-66
2023/08/06 07:55:29;;;;;;;0.82;0.30;;;;;;;;;;5065705;28;20213;-66
2023/08/06 07:57:55;;;;;;;0.47;0.20;;;;;;;;;;5066247;28;20221;-66
2023/08/06 08:00:21;;;;;;;0.82;0.30;;;;;;;;;;5066099;28;20404;-66
2023/08/06 08:02:47;;;;;;;0.52;0.20;;;;;;;;;;5065935;28;20209;-66
2023/08/06 08:05:14;;;;;;;0.63;0.32;;;;;;;;;;5065772;28;20207;-65
2023/08/06 08:07:40;;;;;;;0.80;0.20;;;;;;;;;;5065871;28;20194;-65
2023/08/06 08:10:07;;;;;;;0.15;0.10;;;;;;;;;;5065472;28;20209;-65
2023/08/06 08:12:35;;;;;;;1.13;0.28;;;;;;;;;;5065858;28;20237;-65
2023/08/06 08:15:01;;;;;;;0.80;0.10;;;;;;;;;;5065501;28;20201;-65
2023/08/06 08:17:27;;;;;;;1.02;0.10;;;;;;;;;;5065486;28;20227;-66
2023/08/06 08:19:54;;;;;;;0.40;0.10;;;;;;;;;;5065710;28;20201;-66
2023/08/06 08:22:20;;;;;;;0.13;0.10;;;;;;;;;;5065445;28;20232;-66
2023/08/06 08:24:46;;;;;;;0.10;0.10;;;;;;;;;;5065512;28;20215;-66
2023/08/06 08:27:12;;;;;;;0.95;0.10;;;;;;;;;;5065188;28;20221;-66
2023/08/06 08:29:40;;;;;;;2.53;0.10;;;;;;;;;;5065005;28;20203;-66
2023/08/06 08:32:07;;;;;;;0.57;0.32;;;;;;;;;;5065074;28;20201;-66
2023/08/06 08:34:33;;;;;;;0.20;0.20;;;;;;;;;;5064802;28;20446;-66
2023/08/06 08:36:59;;;;;;;2.85;0.20;;;;;;;;;;5065113;28;20217;-66
2023/08/06 08:39:25;;;;;;;0.35;0.20;;;;;;;;;;5065181;28;20464;-66
2023/08/06 08:41:53;;;;;;;0.38;0.10;;;;;;;;;;5065039;28;20202;-66
2023/08/06 08:44:19;;;;;;;0.10;0.10;;;;;;;;;;5064898;28;20207;-66
2023/08/06 08:46:48;;;;;;;1.08;0.20;;;;;;;;;;5064929;28;20204;-66
2023/08/06 08:49:14;;;;;;;1.00;0.20;;;;;;;;;;5064790;28;20209;-66
2023/08/06 08:51:40;;;;;;;0.15;0.08;;;;;;;;;;5064864;28;20197;-66
2023/08/06 08:54:08;;;;;;;2.78;0.10;;;;;;;;;;5065064;28;20209;-66
2023/08/06 08:56:34;;;;;;;0.20;0.10;;;;;;;;;;5064740;28;20221;-66
2023/08/06 08:59:00;;;;;;;0.30;0.30;;;;;;;;;;5064915;28;20205;-66
2023/08/06 09:01:28;;;;;;;0.35;0.10;;;;;;;;;;5064672;28;20525;-66
2023/08/06 09:03:56;;;;;;;1.55;0.22;;;;;;;;;;5063296;28;20224;-66
2023/08/06 09:06:24;;;;;;;0.70;0.20;;;;;;;;;;5064716;28;20201;-66
2023/08/06 09:08:52;;;;;;;1.67;0.30;;;;;;;;;;5064708;28;20201;-66
2023/08/06 09:11:20;;;;;;;0.30;0.20;;;;;;;;;;5064922;28;20440;-64
2023/08/06 09:13:46;;;;;;;1.65;0.20;;;;;;;;;;5064493;28;20505;-65
2023/08/06 09:16:13;;;;;;;0.20;0.10;;;;;;;;;;5064427;28;20264;-65
2023/08/06 09:18:40;;;;;;;0.10;0.10;;;;;;;;;;5064557;28;20201;-65
2023/08/06 09:21:13;;;;;;;0.20;0.20;;;;;;;;;;5064695;28;20201;-65
2023/08/06 09:23:40;;;;;;;0.10;0.10;;;;;;;;;;5064392;28;20197;-65
2023/08/06 09:26:06;;;;;;;0.30;0.20;;;;;;;;;;5064603;28;20209;-65
2023/08/06 09:28:37;;;;;;;0.10;0.10;;;;;;;;;;5064047;28;20217;-65
2023/08/06 09:31:04;;;;;;;0.10;0.10;;;;;;;;;;5064178;28;20512;-65
2023/08/06 09:33:30;;;;;;;0.00;0.00;;;;;;;;;;5064472;28;20208;-65
2023/08/06 09:35:56;;;;;;;0.32;0.20;;;;;;;;;;5064280;28;20201;-65
2023/08/06 09:38:24;;;;;;;0.63;0.10;;;;;;;;;;5064578;28;20503;-65
2023/08/06 09:40:50;;;;;;;0.10;0.10;;;;;;;;;;5064616;28;20369;-65
2023/08/06 09:43:19;;;;;;;0.20;0.20;;;;;;;;;;5064303;28;20201;-65
2023/08/06 09:45:46;;;;;;;0.30;0.22;;;;;;;;;;5056059;28;20205;-65
2023/08/06 09:48:12;;;;;;;0.05;0.05;;;;;;;;;;5063920;28;20232;-65
2023/08/06 09:50:39;;;;;;;0.10;0.10;;;;;;;;;;5064045;28;20197;-65
2023/08/06 09:53:06;;;;;;;2.47;0.20;;;;;;;;;;5063886;28;20201;-65
2023/08/06 09:55:34;;;;;;;0.20;0.20;;;;;;;;;;5063472;28;20208;-65
2023/08/06 09:58:00;;;;;;;0.20;0.20;;;;;;;;;;5063793;28;20221;-65
2023/08/06 10:00:28;;;;;;;0.10;0.10;;;;;;;;;;5063549;28;20217;-65
2023/08/06 10:02:55;;;;;;;0.10;0.10;;;;;;;;;;5063680;28;20201;-65
2023/08/06 10:05:22;;;;;;;0.38;0.22;;;;;;;;;;5063414;28;20512;-65
2023/08/06 10:07:50;;;;;;;0.85;0.10;;;;;;;;;;5063789;28;20235;-65
2023/08/06 10:10:17;;;;;;;1.75;0.13;;;;;;;;;;5063615;28;20634;-65
2023/08/06 10:12:47;;;;;;;0.10;0.10;;;;;;;;;;5055089;28;20550;-65
2023/08/06 10:15:14;;;;;;;0.05;0.05;;;;;;;;;;5062888;28;20496;-65
2023/08/06 10:17:41;;;;;;;0.10;0.10;;;;;;;;;;5063570;28;20404;-65
2023/08/06 10:20:08;;;;;;;0.10;0.10;;;;;;;;;;5063207;28;20450;-65
2023/08/06 10:22:35;;;;;;;0.95;0.10;;;;;;;;;;5062895;28;20208;-65
2023/08/06 10:25:04;;;;;;;0.20;0.13;;;;;;;;;;5062800;28;20200;-65
2023/08/06 10:27:31;;;;;;;0.55;0.00;;;;;;;;;;5063100;28;20220;-65
2023/08/06 10:30:21;;;;;;;0.20;0.20;;;;;;;;;;5062988;28;20211;-65
2023/08/06 10:32:48;;;;;;;0.22;0.22;;;;;;;;;;5055014;28;20224;-65
2023/08/06 10:35:28;;;;;;;0.57;0.30;;;;;;;;;;5063479;28;20205;-65
2023/08/06 10:37:58;;;;;;;0.30;0.30;;;;;;;;;;5055867;28;20224;-65
2023/08/06 10:40:25;;;;;;;2.75;0.20;;;;;;;;;;5063007;28;20272;-65
2023/08/06 10:42:52;;;;;;;0.20;0.10;;;;;;;;;;5062659;28;20200;-65
2023/08/06 10:45:20;;;;;;;0.57;0.20;;;;;;;;;;5062684;28;20268;-65
2023/08/06 10:47:47;;;;;;;0.10;0.10;;;;;;;;;;5054288;28;20201;-64
2023/08/06 10:50:16;;;;;;;0.73;0.20;;;;;;;;;;5063048;28;20201;-65
2023/08/06 10:52:44;;;;;;;0.35;0.10;;;;;;;;;;5062521;28;20221;-65
2023/08/06 10:55:10;;;;;;;0.43;0.30;;;;;;;;;;5062672;28;20204;-65
2023/08/06 10:57:37;;;;;;;0.25;0.20;;;;;;;;;;5062496;28;20225;-66
2023/08/06 11:00:04;;;;;;;0.75;0.52;;;;;;;;;;5062585;28;20527;-65
2023/08/06 11:02:33;;;;;;;0.43;0.20;;;;;;;;;;5062174;28;20203;-65
2023/08/06 11:05:05;;;;;;;0.32;0.30;;;;;;;;;;5062269;28;20212;-65
2023/08/06 11:07:31;;;;;;;2.13;0.15;;;;;;;;;;5062527;28;20193;-65
2023/08/06 11:10:01;;;;;;;0.85;0.08;;;;;;;;;;5062372;28;20504;-65
2023/08/06 11:12:28;;;;;;;0.10;0.10;;;;;;;;;;5062667;28;20381;-65
2023/08/06 11:14:55;;;;;;;1.40;0.38;;;;;;;;;;5062195;28;20224;-65
2023/08/06 11:17:21;;;;;;;0.43;0.30;;;;;;;;;;5062025;28;20259;-65
2023/08/06 11:19:50;;;;;;;0.30;0.30;;;;;;;;;;5054230;28;20197;-65
2023/08/06 11:22:17;;;;;;;1.40;0.35;;;;;;;;;;5062206;28;20226;-64
2023/08/06 11:24:43;;;;;;;0.10;0.10;;;;;;;;;;5061622;28;20390;-64
2023/08/06 11:27:13;;;;;;;1.02;0.20;;;;;;;;;;5061105;28;20237;-64
2023/08/06 11:29:39;;;;;;;1.70;0.20;;;;;;;;;;5062095;28;20260;-64
2023/08/06 11:32:06;;;;;;;0.32;0.20;;;;;;;;;;5061917;28;20197;-64
2023/08/06 11:34:32;;;;;;;2.40;0.38;;;;;;;;;;5061792;28;20197;-64
2023/08/06 11:37:00;;;;;;;0.30;0.30;;;;;;;;;;5061780;28;20203;-64
2023/08/06 11:39:26;;;;;;;0.45;0.22;;;;;;;;;;5061908;28;20264;-64
2023/08/06 11:41:52;;;;;;;0.25;0.25;;;;;;;;;;5061868;28;20374;-64
2023/08/06 11:44:19;;;;;;;0.25;0.25;;;;;;;;;;5061608;28;20217;-64
2023/08/06 11:46:53;;;;;;;1.88;0.30;;;;;;;;;;5061699;28;20213;-65
2023/08/06 11:49:21;;;;;;;0.47;0.38;;;;;;;;;;5062061;28;20360;-65
2023/08/06 11:51:48;;;;;;;0.32;0.32;;;;;;;;;;5061999;28;20197;-65
2023/08/06 11:54:15;;;;;;;0.40;0.40;;;;;;;;;;5062098;28;20519;-65
2023/08/06 11:56:42;;;;;;;0.40;0.40;;;;;;;;;;5062095;28;20205;-65
2023/08/06 11:59:10;;;;;;;0.40;0.40;;;;;;;;;;5061496;28;20213;-65
2023/08/06 12:01:36;;;;;;;0.47;0.40;;;;;;;;;;5061474;28;20221;-65
2023/08/06 12:04:02;;;;;;;0.60;0.60;;;;;;;;;;5061637;28;20197;-64
2023/08/06 12:06:29;;;;;;;0.63;0.30;;;;;;;;;;5061457;28;20197;-64
2023/08/06 12:08:55;;;;;;;0.50;0.43;;;;;;;;;;5061592;28;20193;-64
2023/08/06 12:11:24;;;;;;;0.70;0.70;;;;;;;;;;5061598;28;20198;-64
2023/08/06 12:13:51;;;;;;;0.45;0.40;;;;;;;;;;5061283;28;20535;-64
2023/08/06 12:16:18;;;;;;;0.50;0.50;;;;;;;;;;5061747;28;20492;-64
2023/08/06 12:18:44;;;;;;;4.63;0.77;;;;;;;;;;5061262;28;20241;-64
2023/08/06 12:21:11;;;;;;;1.45;0.60;;;;;;;;;;5061722;28;20519;-64
2023/08/06 12:23:37;;;;;;;0.70;0.70;;;;;;;;;;5061331;28;20197;-64
2023/08/06 12:26:03;;;;;;;0.60;0.60;;;;;;;;;;5061299;28;20197;-64
2023/08/06 12:28:31;;;;;;;2.80;0.60;;;;;;;;;;5061373;28;20228;-64
2023/08/06 12:30:57;;;;;;;0.50;0.50;;;;;;;;;;5061587;28;20197;-64
2023/08/06 12:33:23;;;;;;;0.47;0.47;;;;;;;;;;5061314;28;20198;-64
2023/08/06 12:35:50;;;;;;;0.57;0.55;;;;;;;;;;5061014;28;20197;-64
2023/08/06 12:38:16;;;;;;;2.35;0.60;;;;;;;;;;5064224;28;20536;-64
2023/08/06 12:40:42;;;;;;;1.38;0.80;;;;;;;;;;5064746;28;20268;-64
2023/08/06 12:43:08;;;;;;;1.48;1.00;;;;;;;;;;5064731;28;20197;-64
2023/08/06 12:45:36;;;;;;;0.57;0.57;;;;;;;;;;5064758;28;20531;-64
2023/08/06 12:48:03;;;;;;;0.60;0.60;;;;;;;;;;5064778;28;20497;-64
2023/08/06 12:50:29;;;;;;;1.58;0.55;;;;;;;;;;5065029;28;20528;-64
2023/08/06 12:52:55;;;;;;;1.20;1.08;;;;;;;;;;5064690;28;20201;-64
2023/08/06 12:55:21;;;;;;;0.47;0.40;;;;;;;;;;5064361;28;20197;-64
2023/08/06 12:57:48;;;;;;;0.80;0.60;;;;;;;;;;5064446;28;20311;-64
2023/08/06 13:00:14;;;;;;;0.65;0.45;;;;;;;;;;5064512;28;20196;-64
2023/08/06 13:02:41;;;;;;;0.40;0.40;;;;;;;;;;5064344;28;20201;-64
2023/08/06 13:05:09;;;;;;;0.75;0.40;;;;;;;;;;5064258;28;20481;-64
2023/08/06 13:07:36;;;;;;;0.30;0.30;;;;;;;;;;5064368;28;20201;-64
2023/08/06 13:10:02;;;;;;;0.57;0.57;;;;;;;;;;5064289;28;20205;-64
2023/08/06 13:12:28;;;;;;;0.63;0.47;;;;;;;;;;5064459;28;20504;-64
2023/08/06 13:14:57;;;;;;;0.52;0.52;;;;;;;;;;5056248;28;20205;-64
2023/08/06 13:17:23;;;;;;;0.52;0.52;;;;;;;;;;5064143;28;20505;-64
2023/08/06 13:19:51;;;;;;;0.98;0.70;;;;;;;;;;5064135;28;20205;-64
2023/08/06 13:22:17;;;;;;;0.60;0.60;;;;;;;;;;5064049;28;20201;-65
2023/08/06 13:24:43;;;;;;;0.50;0.50;;;;;;;;;;5063804;28;20209;-65
2023/08/06 13:27:10;;;;;;;0.70;0.70;;;;;;;;;;5063893;28;20217;-65
2023/08/06 13:29:36;;;;;;;0.60;0.60;;;;;;;;;;5064143;28;20386;-65
2023/08/06 13:32:03;;;;;;;0.70;0.70;;;;;;;;;;5064041;28;20419;-65
2023/08/06 13:34:29;;;;;;;0.50;0.50;;;;;;;;;;5063945;28;20224;-65
2023/08/06 13:36:57;;;;;;;0.47;0.47;;;;;;;;;;5055792;28;20204;-65
2023/08/06 13:39:23;;;;;;;1.05;0.45;;;;;;;;;;5063729;28;20221;-65
2023/08/06 13:41:49;;;;;;;0.70;0.70;;;;;;;;;;5063810;28;20201;-65
2023/08/06 13:44:15;;;;;;;2.75;0.60;;;;;;;;;;5063825;28;20197;-65
2023/08/06 13:46:42;;;;;;;1.65;0.60;;;;;;;;;;5063737;28;20625;-65
2023/08/06 13:49:08;;;;;;;0.45;0.45;;;;;;;;;;5062907;28;20193;-65
2023/08/06 13:51:35;;;;;;;0.50;0.50;;;;;;;;;;5063392;28;20211;-65
2023/08/06 13:54:03;;;;;;;0.30;0.30;;;;;;;;;;5063298;28;20213;-64
2023/08/06 13:56:30;;;;;;;2.00;0.68;;;;;;;;;;5063618;28;20518;-65
2023/08/06 13:58:56;;;;;;;0.45;0.45;;;;;;;;;;5055403;28;20233;-65
2023/08/06 14:01:23;;;;;;;0.50;0.50;;;;;;;;;;5063516;28;20392;-65
2023/08/06 14:03:49;;;;;;;0.40;0.40;;;;;;;;;;5063191;28;20207;-65
2023/08/06 14:06:15;;;;;;;0.40;0.40;;;;;;;;;;5063147;28;20204;-65
2023/08/06 14:08:41;;;;;;;0.35;0.30;;;;;;;;;;5063152;28;20205;-65
2023/08/06 14:11:10;;;;;;;0.57;0.30;;;;;;;;;;5063375;28;20197;-65
2023/08/06 14:13:36;;;;;;;0.47;0.40;;;;;;;;;;5062900;28;20197;-65
2023/08/06 14:16:03;;;;;;;2.55;0.30;;;;;;;;;;5063188;28;20196;-65
2023/08/06 14:18:29;;;;;;;0.98;0.47;;;;;;;;;;5062998;28;20229;-65
2023/08/06 14:20:55;;;;;;;0.40;0.38;;;;;;;;;;5062925;28;20203;-65
2023/08/06 14:23:22;;;;;;;0.52;0.50;;;;;;;;;;5062883;28;20203;-65
2023/08/06 14:25:48;;;;;;;0.45;0.30;;;;;;;;;;5062941;28;20527;-65
2023/08/06 14:28:15;;;;;;;1.67;0.38;;;;;;;;;;5062942;28;20236;-65
2023/08/06 14:30:42;;;;;;;0.40;0.40;;;;;;;;;;5062804;28;20204;-65
2023/08/06 14:33:08;;;;;;;0.30;0.30;;;;;;;;;;5062630;28;20197;-65
2023/08/06 14:35:34;;;;;;;0.40;0.40;;;;;;;;;;5062489;28;20264;-65
2023/08/06 14:38:00;;;;;;;0.68;0.40;;;;;;;;;;5062787;28;20513;-65
2023/08/06 14:40:33;;;;;;;0.50;0.50;;;;;;;;;;5062884;28;20201;-65